Terminal Aerodrome Forecast
Issued by NWS

Home | Current Version | Previous Version | Text Only | Print | Product List | Glossary On
Versions: 1 2 3 4 5 6 7 8 9 10 11 12 13 14 15 16 17 18 19 20 21
000
FTUS43 KDLH 052345
TAFBRD
TAF
KBRD 052345Z 0600/0624 18008KT P6SM VCTS FEW045CB
      TEMPO 0602/0605 4SM TSRA
     FM060500 17010KT 3SM -RA VCTS SCT015CB OVC025
     FM060700 22009KT 3SM BR VCSH OVC025
     FM061400 35010KT P6SM SCT030 OVC070=

USA.gov is the U.S. government's official web portal to all federal, state and local government web resources and services.